Time;durP1;ratioP1;P1;durP2;ratioP2;P2;SDS_P1;SDS_P2;PMS_P1;PMS_P2;Temp;Humidity;BMP_temperature;BMP_pressure;BME280_temperature;BME280_humidity;BME280_pressure;Samples;Min_cycle;Max_cycle;Signal;HPM_P1;HPM_P2
2024/01/06 00:02:03;;;;;;;9.10;5.67;;;8.10;99.90;;;;;;4981954;28;20475;-67
2024/01/06 00:04:29;;;;;;;9.43;5.20;;;8.10;99.90;;;;;;4984840;28;20456;-67
2024/01/06 00:06:56;;;;;;;9.80;4.90;;;8.10;99.90;;;;;;4985427;28;20556;-67
2024/01/06 00:09:23;;;;;;;6.13;3.83;;;8.10;99.90;;;;;;4986273;28;20469;-67
2024/01/06 00:11:50;;;;;;;7.80;3.77;;;8.10;99.90;;;;;;4978326;28;20433;-67
2024/01/06 00:14:16;;;;;;;5.47;4.53;;;8.10;99.90;;;;;;4977738;28;21050;-67
2024/01/06 00:16:44;;;;;;;10.00;5.10;;;8.20;99.90;;;;;;4989171;28;20817;-67
2024/01/06 00:19:12;;;;;;;6.53;5.20;;;8.20;99.90;;;;;;4983857;28;20441;-67
2024/01/06 00:21:38;;;;;;;12.03;5.70;;;8.10;99.90;;;;;;4986363;28;20460;-67
2024/01/06 00:24:06;;;;;;;8.70;5.47;;;8.10;99.90;;;;;;4990967;28;20467;-67
2024/01/06 00:26:33;;;;;;;8.23;5.00;;;8.10;99.90;;;;;;4987753;28;20547;-68
2024/01/06 00:28:59;;;;;;;9.63;5.47;;;8.20;99.90;;;;;;4984735;28;21082;-67
2024/01/06 00:31:26;;;;;;;10.90;5.60;;;8.10;99.90;;;;;;4986804;28;20462;-67
2024/01/06 00:33:54;;;;;;;7.87;5.53;;;8.10;99.90;;;;;;4987746;28;20482;-67
2024/01/06 00:36:21;;;;;;;7.10;5.97;;;8.10;99.90;;;;;;4991862;28;20476;-67
2024/01/06 00:38:48;;;;;;;9.10;4.87;;;8.00;99.90;;;;;;4982899;28;20465;-67
2024/01/06 00:41:15;;;;;;;9.77;6.20;;;8.00;99.90;;;;;;4989380;28;20452;-67
2024/01/06 00:43:41;;;;;;;10.27;5.63;;;8.00;99.90;;;;;;4989421;28;20449;-67
2024/01/06 00:46:11;;;;;;;8.27;5.33;;;8.00;99.90;;;;;;4990921;28;20437;-67
2024/01/06 00:48:37;;;;;;;10.47;5.90;;;8.10;99.90;;;;;;4985431;28;20470;-67
2024/01/06 00:51:06;;;;;;;9.90;6.20;;;8.10;99.90;;;;;;4986216;28;20906;-67
2024/01/06 00:53:32;;;;;;;13.70;6.70;;;8.00;99.90;;;;;;4986610;28;20444;-67
2024/01/06 00:55:59;;;;;;;11.63;5.70;;;8.00;99.90;;;;;;4987107;28;20453;-67
2024/01/06 00:58:26;;;;;;;12.07;5.60;;;8.10;99.90;;;;;;4982956;28;20449;-67
2024/01/06 01:00:53;;;;;;;10.70;6.27;;;8.00;99.90;;;;;;4986276;28;20436;-67
2024/01/06 01:03:19;;;;;;;11.43;5.23;;;8.20;99.90;;;;;;4985216;28;20459;-67
2024/01/06 01:05:46;;;;;;;7.47;6.27;;;8.30;99.90;;;;;;4979971;28;20882;-68
2024/01/06 01:08:14;;;;;;;9.60;5.87;;;8.20;99.90;;;;;;4988036;28;20466;-67
2024/01/06 01:10:41;;;;;;;8.80;6.20;;;8.20;99.90;;;;;;4985082;28;20789;-67
2024/01/06 01:13:08;;;;;;;10.40;6.17;;;8.20;99.90;;;;;;4982540;28;20430;-67
2024/01/06 01:15:35;;;;;;;10.43;5.67;;;8.10;99.90;;;;;;4983073;28;20459;-67
2024/01/06 01:18:01;;;;;;;12.03;5.73;;;8.00;99.90;;;;;;4988086;28;20460;-67
2024/01/06 01:20:28;;;;;;;8.10;4.80;;;8.00;99.90;;;;;;4989540;28;20461;-67
2024/01/06 01:22:55;;;;;;;9.40;5.73;;;8.10;99.90;;;;;;4984996;28;20494;-67
2024/01/06 01:25:23;;;;;;;8.30;5.53;;;8.10;99.90;;;;;;4985131;28;20502;-68
2024/01/06 01:27:49;;;;;;;9.70;6.00;;;8.10;99.90;;;;;;4986341;28;20450;-67
2024/01/06 01:30:16;;;;;;;12.00;5.43;;;8.10;99.90;;;;;;4990045;28;20454;-67
2024/01/06 01:32:44;;;;;;;11.57;5.37;;;8.20;99.90;;;;;;4982548;28;20489;-67
2024/01/06 01:35:10;;;;;;;12.77;6.30;;;8.20;99.90;;;;;;4974464;28;20497;-67
2024/01/06 01:37:37;;;;;;;10.63;5.20;;;8.10;99.90;;;;;;4990335;28;20451;-67
2024/01/06 01:40:05;;;;;;;11.00;6.50;;;8.10;99.90;;;;;;4979795;28;20534;-67
2024/01/06 01:42:33;;;;;;;12.53;6.90;;;8.10;99.90;;;;;;4986724;28;21012;-67
2024/01/06 01:45:00;;;;;;;11.27;7.00;;;8.00;99.90;;;;;;4985452;28;20493;-67
2024/01/06 01:47:27;;;;;;;9.63;6.20;;;8.10;99.90;;;;;;4989619;28;20451;-67
2024/01/06 01:49:56;;;;;;;13.33;5.13;;;8.20;99.90;;;;;;4982867;28;20444;-67
2024/01/06 01:52:23;;;;;;;7.77;5.20;;;8.30;99.90;;;;;;4986662;28;20470;-68
2024/01/06 01:54:50;;;;;;;15.33;6.33;;;8.20;99.90;;;;;;4986712;28;20486;-67
2024/01/06 01:57:17;;;;;;;13.93;7.33;;;8.20;99.90;;;;;;4985874;28;20576;-67
2024/01/06 01:59:46;;;;;;;10.03;5.53;;;8.10;99.90;;;;;;4989440;28;20437;-66
2024/01/06 02:02:13;;;;;;;11.80;8.50;;;8.10;99.90;;;;;;4987323;28;20456;-67
2024/01/06 02:04:40;;;;;;;14.47;7.37;;;8.20;99.90;;;;;;4983766;28;21003;-67
2024/01/06 02:07:06;;;;;;;12.63;6.43;;;8.10;99.90;;;;;;4987603;28;20474;-67
2024/01/06 02:09:33;;;;;;;6.87;4.73;;;8.20;99.90;;;;;;4981844;28;20477;-67
2024/01/06 02:12:00;;;;;;;10.77;6.80;;;8.20;99.90;;;;;;4984717;28;20473;-67
2024/01/06 02:14:27;;;;;;;13.10;6.37;;;8.10;99.90;;;;;;4975998;28;20489;-67
2024/01/06 02:16:55;;;;;;;14.17;7.67;;;8.10;99.90;;;;;;4987245;28;20461;-67
2024/01/06 02:19:22;;;;;;;19.53;8.10;;;8.20;99.90;;;;;;4988798;28;20462;-67
2024/01/06 02:21:53;;;;;;;14.57;6.23;;;8.20;99.90;;;;;;4987516;28;20486;-67
2024/01/06 02:24:20;;;;;;;11.17;6.10;;;8.20;99.90;;;;;;4983754;28;20833;-67
2024/01/06 02:26:47;;;;;;;13.23;7.03;;;8.10;99.90;;;;;;4984862;28;20441;-67
2024/01/06 02:29:14;;;;;;;9.30;6.07;;;8.10;99.90;;;;;;4987108;28;20479;-67
2024/01/06 02:31:41;;;;;;;7.10;3.70;;;8.10;99.90;;;;;;4984867;28;20975;-67
2024/01/06 02:34:07;;;;;;;14.37;8.60;;;7.80;99.90;;;;;;4964245;28;20514;-67
2024/01/06 02:36:34;;;;;;;7.37;4.70;;;7.70;99.90;;;;;;4978894;28;20458;-67
2024/01/06 02:39:02;;;;;;;11.90;5.90;;;7.60;99.90;;;;;;4984101;28;20497;-67
2024/01/06 02:41:29;;;;;;;10.17;4.40;;;7.50;99.90;;;;;;4980398;28;20449;-67
2024/01/06 02:43:56;;;;;;;11.10;4.83;;;7.40;99.90;;;;;;4984033;28;21094;-67
2024/01/06 02:46:23;;;;;;;7.97;5.07;;;7.30;99.90;;;;;;4980384;28;20465;-67
2024/01/06 02:48:50;;;;;;;9.43;5.07;;;7.30;99.90;;;;;;4979180;28;21334;-67
2024/01/06 02:51:16;;;;;;;6.47;5.00;;;7.30;99.90;;;;;;4981464;28;21033;-67
2024/01/06 02:53:43;;;;;;;10.00;5.57;;;7.30;99.90;;;;;;4982000;28;20498;-68
2024/01/06 02:56:12;;;;;;;8.87;4.90;;;7.30;99.90;;;;;;4980961;28;20459;-68
2024/01/06 02:58:39;;;;;;;6.53;3.70;;;7.20;99.90;;;;;;4982316;28;20465;-67
2024/01/06 03:01:06;;;;;;;10.30;5.60;;;7.30;99.90;;;;;;4987431;28;20467;-67
2024/01/06 03:03:33;;;;;;;10.77;5.60;;;7.30;99.90;;;;;;4983367;28;20931;-67
2024/01/06 03:06:00;;;;;;;7.07;4.03;;;7.30;99.90;;;;;;4979517;28;20441;-67
2024/01/06 03:08:26;;;;;;;7.37;4.40;;;7.40;99.90;;;;;;4990501;28;20457;-66
2024/01/06 03:10:53;;;;;;;4.30;3.00;;;7.40;99.90;;;;;;4982137;28;20433;-68
2024/01/06 03:13:21;;;;;;;8.83;5.03;;;7.40;99.90;;;;;;4978122;28;20470;-67
2024/01/06 03:15:48;;;;;;;9.13;5.93;;;7.40;99.90;;;;;;4981349;28;20445;-66
2024/01/06 03:18:15;;;;;;;9.00;4.87;;;7.40;99.90;;;;;;4982453;28;20473;-66
2024/01/06 03:20:41;;;;;;;11.77;4.43;;;7.40;99.90;;;;;;4983740;28;20439;-67
2024/01/06 03:23:08;;;;;;;7.00;3.67;;;7.40;99.90;;;;;;4986200;28;20464;-67
2024/01/06 03:25:35;;;;;;;8.67;4.17;;;7.40;99.90;;;;;;4988290;28;20772;-67
2024/01/06 03:28:02;;;;;;;13.17;6.20;;;7.40;99.90;;;;;;4989403;28;20432;-67
2024/01/06 03:30:30;;;;;;;7.33;3.43;;;7.30;99.90;;;;;;4983760;28;20461;-68
2024/01/06 03:32:56;;;;;;;6.17;3.80;;;7.20;99.90;;;;;;4989911;28;20453;-67
2024/01/06 03:35:23;;;;;;;7.40;4.07;;;7.20;99.90;;;;;;4989114;28;20447;-67
2024/01/06 03:37:50;;;;;;;10.30;3.67;;;7.20;99.90;;;;;;4987856;28;20439;-67
2024/01/06 03:40:17;;;;;;;6.57;3.30;;;7.30;99.90;;;;;;4989694;28;20481;-67
2024/01/06 03:42:43;;;;;;;7.57;5.13;;;7.30;99.90;;;;;;4988331;28;20456;-67
2024/01/06 03:45:10;;;;;;;8.53;3.90;;;7.20;99.90;;;;;;4987738;28;20949;-67
2024/01/06 03:47:38;;;;;;;11.57;4.80;;;7.10;99.90;;;;;;4984001;28;20467;-67
2024/01/06 03:50:06;;;;;;;15.10;5.73;;;7.10;99.90;;;;;;4988087;28;20455;-67
2024/01/06 03:52:32;;;;;;;9.00;4.23;;;7.20;99.90;;;;;;4988522;28;20433;-67
2024/01/06 03:54:59;;;;;;;9.80;4.17;;;7.20;99.90;;;;;;4985626;28;20456;-67
2024/01/06 03:57:26;;;;;;;10.23;3.47;;;7.20;99.90;;;;;;4982031;28;20432;-67
2024/01/06 03:59:53;;;;;;;9.53;4.17;;;7.10;99.90;;;;;;4987009;28;20432;-67
2024/01/06 04:02:20;;;;;;;8.10;5.17;;;7.00;99.90;;;;;;4985555;28;20828;-67
2024/01/06 04:04:48;;;;;;;7.97;3.87;;;7.00;99.90;;;;;;4981959;28;20471;-67
2024/01/06 04:07:14;;;;;;;6.13;4.30;;;7.00;99.90;;;;;;4986553;28;20462;-67
2024/01/06 04:09:43;;;;;;;5.93;4.00;;;7.00;99.90;;;;;;4989039;28;20436;-67
2024/01/06 04:12:10;;;;;;;7.40;4.53;;;7.00;99.90;;;;;;4987294;28;20436;-67
2024/01/06 04:14:37;;;;;;;10.20;4.70;;;6.90;99.90;;;;;;4984931;28;20985;-67
2024/01/06 04:17:03;;;;;;;12.60;4.03;;;6.90;99.90;;;;;;4989336;28;20915;-67
2024/01/06 04:19:30;;;;;;;5.47;4.37;;;6.90;99.90;;;;;;4988135;28;20458;-67
2024/01/06 04:21:58;;;;;;;13.60;5.60;;;6.80;99.90;;;;;;4989652;28;20432;-67
2024/01/06 04:24:25;;;;;;;11.30;4.40;;;6.80;99.90;;;;;;4981051;28;20464;-67
2024/01/06 04:26:52;;;;;;;8.73;4.23;;;6.80;99.90;;;;;;4984239;28;20473;-67
2024/01/06 04:29:18;;;;;;;14.53;4.47;;;6.80;99.90;;;;;;4984532;28;20440;-67
2024/01/06 04:31:45;;;;;;;6.30;3.90;;;6.80;99.90;;;;;;4986776;28;20462;-67
2024/01/06 04:34:12;;;;;;;5.70;4.67;;;6.70;99.90;;;;;;4985305;28;20456;-67
2024/01/06 04:36:39;;;;;;;8.90;5.00;;;6.80;99.90;;;;;;4987100;28;20462;-67
2024/01/06 04:39:07;;;;;;;7.20;4.17;;;6.70;99.90;;;;;;4993035;28;20432;-67
2024/01/06 04:41:34;;;;;;;11.70;4.47;;;6.80;99.90;;;;;;4986927;28;20863;-67
2024/01/06 04:44:01;;;;;;;6.90;4.73;;;6.70;99.90;;;;;;4985270;28;20486;-67
2024/01/06 04:46:28;;;;;;;12.33;5.50;;;6.60;99.90;;;;;;4987337;28;20437;-67
2024/01/06 04:48:54;;;;;;;14.90;7.87;;;6.60;99.90;;;;;;4986403;28;20993;-67
2024/01/06 04:51:21;;;;;;;7.83;4.43;;;6.50;99.90;;;;;;4986334;28;20702;-67
2024/01/06 04:53:48;;;;;;;7.00;3.87;;;6.50;99.90;;;;;;4980599;28;20456;-67
2024/01/06 04:56:16;;;;;;;7.97;5.40;;;6.50;99.90;;;;;;4984546;28;20432;-67
2024/01/06 04:58:43;;;;;;;11.43;6.00;;;6.40;99.90;;;;;;4987674;28;20939;-67
2024/01/06 05:01:09;;;;;;;13.20;5.60;;;6.60;99.90;;;;;;4987006;28;20454;-67
2024/01/06 05:03:36;;;;;;;5.70;3.50;;;6.60;99.90;;;;;;4988041;28;20897;-67
2024/01/06 05:06:03;;;;;;;11.50;5.63;;;6.60;99.90;;;;;;4986811;28;20425;-67
2024/01/06 05:08:30;;;;;;;10.10;4.70;;;6.60;99.90;;;;;;4985239;28;20465;-67
2024/01/06 05:10:57;;;;;;;11.47;6.30;;;6.60;99.90;;;;;;4985367;28;21157;-67
2024/01/06 05:13:25;;;;;;;10.03;5.50;;;6.60;99.90;;;;;;4985890;28;20473;-67
2024/01/06 05:15:52;;;;;;;7.90;4.33;;;6.60;99.90;;;;;;4986728;28;20429;-67
2024/01/06 05:18:19;;;;;;;15.10;5.67;;;6.50;99.90;;;;;;4990558;28;20429;-67
2024/01/06 05:20:45;;;;;;;8.53;4.57;;;6.50;99.90;;;;;;4987340;28;20458;-67
2024/01/06 05:23:12;;;;;;;5.17;3.20;;;6.40;99.90;;;;;;4984967;28;20480;-67
2024/01/06 05:25:39;;;;;;;9.90;4.80;;;6.40;99.90;;;;;;4983981;28;20529;-67
2024/01/06 05:28:06;;;;;;;9.83;4.67;;;6.50;99.90;;;;;;4983925;28;20451;-67
2024/01/06 05:30:34;;;;;;;9.13;5.60;;;6.40;99.90;;;;;;4987310;28;20456;-67
2024/01/06 05:33:01;;;;;;;8.43;5.10;;;6.40;99.90;;;;;;4982346;28;20798;-67
2024/01/06 05:35:28;;;;;;;8.30;5.30;;;6.30;99.90;;;;;;4986254;28;20526;-67
2024/01/06 05:37:55;;;;;;;7.70;4.87;;;6.30;99.90;;;;;;4982035;28;20433;-67
2024/01/06 05:40:20;;;;;;;5.57;3.20;;;6.30;99.90;;;;;;4986187;28;20543;-67
2024/01/06 05:42:47;;;;;;;9.33;4.10;;;6.30;99.90;;;;;;4989807;28;20459;-67
2024/01/06 05:45:14;;;;;;;7.60;3.90;;;6.40;99.90;;;;;;4985941;28;20611;-67
2024/01/06 05:47:42;;;;;;;7.70;4.20;;;6.20;99.90;;;;;;4985975;28;20462;-67
2024/01/06 05:50:10;;;;;;;4.97;4.20;;;6.40;99.90;;;;;;4983866;28;20428;-67
2024/01/06 05:52:36;;;;;;;11.50;4.83;;;6.40;99.90;;;;;;4984520;28;20449;-67
2024/01/06 05:55:04;;;;;;;9.40;4.10;;;6.50;99.90;;;;;;4983872;28;20504;-67
2024/01/06 05:57:31;;;;;;;15.90;6.23;;;6.50;99.90;;;;;;4984503;28;20449;-67
2024/01/06 05:59:58;;;;;;;11.40;4.37;;;6.60;99.90;;;;;;4983860;28;20458;-67
2024/01/06 06:02:24;;;;;;;10.70;5.80;;;6.50;99.90;;;;;;4984880;28;20440;-67
2024/01/06 06:04:53;;;;;;;10.87;5.07;;;6.60;99.90;;;;;;4983573;28;21059;-67
2024/01/06 06:07:20;;;;;;;8.57;4.20;;;6.50;99.90;;;;;;4985413;28;20886;-67
2024/01/06 06:09:47;;;;;;;8.20;4.50;;;6.40;99.90;;;;;;4985150;28;20972;-67
2024/01/06 06:12:14;;;;;;;6.10;4.60;;;6.40;99.90;;;;;;4985081;28;20432;-67
2024/01/06 06:14:41;;;;;;;6.80;3.27;;;6.20;99.90;;;;;;4985405;28;20978;-68
2024/01/06 06:17:08;;;;;;;9.20;4.13;;;6.10;99.90;;;;;;4984128;28;20985;-67
2024/01/06 06:19:34;;;;;;;5.07;3.10;;;6.10;99.90;;;;;;4985592;28;20453;-67
2024/01/06 06:22:02;;;;;;;7.07;3.93;;;6.10;99.90;;;;;;4986297;28;20433;-68
2024/01/06 06:24:29;;;;;;;9.00;5.10;;;6.00;99.90;;;;;;4990990;28;20467;-67
2024/01/06 06:26:56;;;;;;;6.33;3.90;;;6.00;99.90;;;;;;4980970;28;21216;-67
2024/01/06 06:29:22;;;;;;;9.23;7.20;;;6.10;99.90;;;;;;4979498;28;20468;-67
2024/01/06 06:31:49;;;;;;;3.77;2.60;;;6.10;99.90;;;;;;4983636;28;20455;-67
2024/01/06 06:34:16;;;;;;;4.10;2.77;;;6.10;99.90;;;;;;4983247;28;20469;-67
2024/01/06 06:36:43;;;;;;;12.13;5.30;;;6.10;99.90;;;;;;4985982;28;20498;-67
2024/01/06 06:39:11;;;;;;;8.77;4.90;;;6.10;99.90;;;;;;4985698;28;20893;-67
2024/01/06 06:41:38;;;;;;;10.87;5.43;;;6.00;99.90;;;;;;4987839;28;20954;-67
2024/01/06 06:44:05;;;;;;;7.27;3.40;;;6.10;99.90;;;;;;4983679;28;21009;-67
2024/01/06 06:46:32;;;;;;;5.37;3.37;;;6.10;99.90;;;;;;4983985;28;20458;-67
2024/01/06 06:48:58;;;;;;;5.83;3.83;;;6.10;99.90;;;;;;4981320;28;20531;-67
2024/01/06 06:51:27;;;;;;;5.60;3.63;;;5.90;99.90;;;;;;4984660;28;20473;-67
2024/01/06 06:53:53;;;;;;;10.37;5.27;;;5.90;99.90;;;;;;4984598;28;20477;-67
2024/01/06 06:56:22;;;;;;;8.63;3.63;;;5.90;99.90;;;;;;4981782;28;20455;-67
2024/01/06 06:58:49;;;;;;;13.97;5.37;;;6.00;99.90;;;;;;4979413;28;20495;-68
2024/01/06 07:01:16;;;;;;;8.50;4.70;;;5.90;99.90;;;;;;4985366;28;21266;-68
2024/01/06 07:03:42;;;;;;;6.70;3.23;;;5.80;99.90;;;;;;4977072;28;20467;-67
2024/01/06 07:06:12;;;;;;;14.57;5.67;;;5.80;99.90;;;;;;4981936;28;20437;-67
2024/01/06 07:08:39;;;;;;;7.57;3.57;;;5.80;99.90;;;;;;4979111;28;20425;-67
2024/01/06 07:11:06;;;;;;;9.97;4.70;;;5.90;99.90;;;;;;4987892;28;20449;-66
2024/01/06 07:13:34;;;;;;;6.93;3.83;;;5.80;99.90;;;;;;4988314;28;20459;-67
2024/01/06 07:16:00;;;;;;;10.33;4.53;;;5.80;99.90;;;;;;4989506;28;20514;-66
2024/01/06 07:18:27;;;;;;;9.33;5.13;;;5.70;99.90;;;;;;4983461;28;20449;-66
2024/01/06 07:20:54;;;;;;;10.30;2.57;;;5.70;99.90;;;;;;4989730;28;20454;-67
2024/01/06 07:23:20;;;;;;;8.73;3.67;;;5.60;99.90;;;;;;4983075;28;20477;-67
2024/01/06 07:25:47;;;;;;;9.40;4.83;;;5.60;99.90;;;;;;4985644;28;20429;-67
2024/01/06 07:28:14;;;;;;;7.37;5.37;;;5.50;99.90;;;;;;4985318;28;20424;-67
2024/01/06 07:30:42;;;;;;;9.90;6.40;;;5.60;99.90;;;;;;4982985;28;20879;-67
2024/01/06 07:33:11;;;;;;;11.23;4.80;;;5.40;99.90;;;;;;4989422;28;20428;-67
2024/01/06 07:35:42;;;;;;;4.80;2.77;;;5.30;99.90;;;;;;4983176;28;20858;-67
2024/01/06 07:38:10;;;;;;;7.10;5.20;;;5.30;99.90;;;;;;4983342;28;20757;-67
2024/01/06 07:40:36;;;;;;;15.20;5.57;;;5.30;99.90;;;;;;4986313;28;20469;-67
2024/01/06 07:43:04;;;;;;;2.60;2.20;;;5.30;99.90;;;;;;4988337;28;20458;-68
2024/01/06 07:45:31;;;;;;;6.17;3.57;;;5.30;99.90;;;;;;4985542;28;20460;-68
2024/01/06 07:47:59;;;;;;;6.00;3.00;;;5.30;99.90;;;;;;4983549;28;21258;-68
2024/01/06 07:50:26;;;;;;;12.90;5.50;;;5.20;99.90;;;;;;4988754;28;20424;-69
2024/01/06 07:52:53;;;;;;;7.17;3.53;;;5.30;99.90;;;;;;4989165;28;20982;-68
2024/01/06 07:55:20;;;;;;;12.70;4.37;;;5.30;99.90;;;;;;4985482;28;20444;-66
2024/01/06 07:57:46;;;;;;;11.00;4.10;;;5.30;99.90;;;;;;4982404;28;20949;-67
2024/01/06 08:00:14;;;;;;;15.83;6.87;;;5.40;99.90;;;;;;4984553;28;20511;-67
2024/01/06 08:02:41;;;;;;;5.47;3.30;;;5.50;99.90;;;;;;4979318;28;20513;-68
2024/01/06 08:05:09;;;;;;;4.83;2.67;;;5.50;99.90;;;;;;4986054;28;20480;-68
2024/01/06 08:07:36;;;;;;;13.10;5.27;;;5.40;99.90;;;;;;4992487;28;20417;-68
2024/01/06 08:10:04;;;;;;;11.03;3.00;;;5.40;99.90;;;;;;4987494;28;20988;-67
2024/01/06 08:12:31;;;;;;;8.03;4.43;;;5.40;99.90;;;;;;4983070;28;20445;-68
2024/01/06 08:14:58;;;;;;;5.63;5.13;;;5.40;99.90;;;;;;4984504;28;20460;-68
2024/01/06 08:17:25;;;;;;;8.20;4.23;;;5.30;99.90;;;;;;4982713;28;20465;-68
2024/01/06 08:19:51;;;;;;;10.33;5.33;;;5.30;99.90;;;;;;4988027;28;20458;-68
2024/01/06 08:22:19;;;;;;;5.77;3.27;;;5.40;99.90;;;;;;4988348;28;20694;-68
2024/01/06 08:24:47;;;;;;;10.27;4.77;;;5.40;99.90;;;;;;4987301;28;20501;-68
2024/01/06 08:27:13;;;;;;;12.37;4.87;;;5.30;99.90;;;;;;4986852;28;20472;-68
2024/01/06 08:29:40;;;;;;;5.17;3.70;;;5.40;99.90;;;;;;4986764;28;20817;-68
2024/01/06 08:32:07;;;;;;;8.30;4.53;;;5.30;99.90;;;;;;4988258;28;20439;-68
2024/01/06 08:34:34;;;;;;;5.63;3.53;;;5.30;99.90;;;;;;4986358;28;20478;-68
2024/01/06 08:37:01;;;;;;;10.13;3.47;;;5.40;99.90;;;;;;4987677;28;20470;-68
2024/01/06 08:39:29;;;;;;;6.10;2.40;;;5.30;99.90;;;;;;4985217;28;20462;-67
2024/01/06 08:41:56;;;;;;;4.80;3.80;;;5.30;99.90;;;;;;4987319;28;20428;-68
2024/01/06 08:44:23;;;;;;;2.73;2.30;;;5.30;99.90;;;;;;4985413;28;20870;-68
2024/01/06 08:46:52;;;;;;;8.53;3.47;;;5.30;99.90;;;;;;4990904;28;20546;-69
2024/01/06 08:49:18;;;;;;;6.63;2.20;;;5.20;99.90;;;;;;4982682;28;20829;-67
2024/01/06 08:51:45;;;;;;;3.70;2.47;;;5.30;99.90;;;;;;4988371;28;20446;-68
2024/01/06 08:54:12;;;;;;;3.53;2.67;;;5.30;99.90;;;;;;4980892;28;20900;-67
2024/01/06 08:56:40;;;;;;;2.70;2.00;;;5.40;99.90;;;;;;4982789;28;20461;-68
2024/01/06 08:59:07;;;;;;;3.30;2.00;;;5.30;99.90;;;;;;4982463;28;21004;-68
2024/01/06 09:01:35;;;;;;;2.17;1.70;;;5.20;99.90;;;;;;4979718;28;20432;-68
2024/01/06 09:04:02;;;;;;;5.10;2.57;;;5.30;99.90;;;;;;4981449;28;21002;-68
2024/01/06 09:06:29;;;;;;;4.70;2.67;;;5.20;99.90;;;;;;4981853;28;20489;-68
2024/01/06 09:08:56;;;;;;;4.13;2.97;;;5.20;99.90;;;;;;4979992;28;20821;-68
2024/01/06 09:11:22;;;;;;;4.77;3.13;;;5.20;99.90;;;;;;4980811;28;20445;-68
2024/01/06 09:13:52;;;;;;;8.30;3.43;;;5.20;99.90;;;;;;4982180;28;20463;-68
2024/01/06 09:16:19;;;;;;;2.13;1.90;;;5.20;99.90;;;;;;4980642;28;20477;-67
2024/01/06 09:18:46;;;;;;;5.00;2.97;;;5.30;99.90;;;;;;4985243;28;20423;-67
2024/01/06 09:21:12;;;;;;;5.77;2.27;;;5.30;99.90;;;;;;4985414;28;20413;-67
2024/01/06 09:23:39;;;;;;;5.50;3.53;;;5.20;99.90;;;;;;4981679;28;20505;-67
2024/01/06 09:26:06;;;;;;;4.63;3.53;;;5.30;99.90;;;;;;4987576;28;21226;-67
2024/01/06 09:28:33;;;;;;;7.30;3.47;;;5.40;99.90;;;;;;4982666;28;20488;-67
2024/01/06 09:31:01;;;;;;;5.70;4.10;;;5.50;99.90;;;;;;4984461;28;20419;-67
2024/01/06 09:33:28;;;;;;;6.70;3.10;;;5.70;99.90;;;;;;4985751;28;20485;-67
2024/01/06 09:35:55;;;;;;;4.20;2.87;;;5.60;99.90;;;;;;4984626;28;20427;-67
2024/01/06 09:38:21;;;;;;;7.20;3.70;;;5.60;99.90;;;;;;4983705;28;20552;-67
2024/01/06 09:40:49;;;;;;;4.50;1.83;;;5.60;99.90;;;;;;4982876;28;20446;-67
2024/01/06 09:43:16;;;;;;;2.73;1.90;;;5.50;99.90;;;;;;4982293;28;20440;-67
2024/01/06 09:45:44;;;;;;;8.17;2.70;;;5.40;99.90;;;;;;4985895;28;20504;-67
2024/01/06 09:48:14;;;;;;;7.23;4.17;;;5.40;99.90;;;;;;4982050;28;20449;-67
2024/01/06 09:50:42;;;;;;;4.77;2.50;;;5.30;99.90;;;;;;4973949;28;20560;-67
2024/01/06 09:53:11;;;;;;;3.50;2.37;;;5.40;99.90;;;;;;4980206;28;20459;-67
2024/01/06 09:55:39;;;;;;;3.47;2.93;;;5.30;99.90;;;;;;4980461;28;21050;-67
2024/01/06 09:58:06;;;;;;;4.57;2.50;;;5.40;99.90;;;;;;4983295;28;20476;-67
2024/01/06 10:00:33;;;;;;;7.97;3.43;;;5.40;99.90;;;;;;4981243;28;20462;-67
2024/01/06 10:03:00;;;;;;;6.83;2.63;;;5.30;99.90;;;;;;4982635;28;20889;-67
2024/01/06 10:05:28;;;;;;;7.40;3.67;;;5.50;99.90;;;;;;4981404;28;20470;-67
2024/01/06 10:07:55;;;;;;;8.03;3.33;;;5.30;99.90;;;;;;4983760;28;20442;-67
2024/01/06 10:10:23;;;;;;;10.27;3.30;;;5.40;99.90;;;;;;4980084;28;20489;-68
2024/01/06 10:12:54;;;;;;;7.07;3.67;;;5.40;99.90;;;;;;4982105;28;21013;-65
2024/01/06 10:15:21;;;;;;;4.07;2.57;;;5.40;99.90;;;;;;4977542;28;21028;-67
2024/01/06 10:17:48;;;;;;;6.73;4.03;;;5.40;99.90;;;;;;4985588;28;20981;-67
2024/01/06 10:20:15;;;;;;;11.23;4.00;;;5.40;99.90;;;;;;4981539;28;20473;-67
2024/01/06 10:22:44;;;;;;;9.00;6.20;;;5.40;99.90;;;;;;4986398;28;20543;-67
2024/01/06 10:25:11;;;;;;;8.97;4.73;;;5.40;99.90;;;;;;4977864;28;20486;-66
2024/01/06 10:27:39;;;;;;;10.57;5.20;;;5.30;99.90;;;;;;4974164;28;20544;-66
2024/01/06 10:30:08;;;;;;;8.90;5.60;;;5.40;99.90;;;;;;4983361;28;20889;-66
2024/01/06 10:32:36;;;;;;;8.47;4.40;;;5.30;99.90;;;;;;4982951;28;20459;-66
2024/01/06 10:35:03;;;;;;;11.30;5.20;;;5.40;99.90;;;;;;4983305;28;20494;-66
2024/01/06 10:37:30;;;;;;;13.60;5.57;;;5.40;99.90;;;;;;4979514;28;20551;-66
2024/01/06 10:40:10;;;;;;;5.00;3.33;;;5.40;99.90;;;;;;4981089;28;20916;-66
2024/01/06 10:42:39;;;;;;;15.77;5.40;;;5.40;99.90;;;;;;4981613;28;20444;-66
2024/01/06 10:45:09;;;;;;;11.07;5.63;;;5.40;99.90;;;;;;4986064;28;20496;-66
2024/01/06 10:47:36;;;;;;;7.73;3.93;;;5.50;99.90;;;;;;4982855;28;20473;-66
2024/01/06 10:50:04;;;;;;;7.30;4.07;;;5.50;99.90;;;;;;4986126;28;20485;-66
2024/01/06 10:52:31;;;;;;;12.77;6.10;;;5.30;99.90;;;;;;4984281;28;20474;-66
2024/01/06 10:54:59;;;;;;;9.07;5.00;;;5.20;99.90;;;;;;4982411;28;20492;-66
2024/01/06 10:57:31;;;;;;;3.50;2.67;;;5.20;99.90;;;;;;4984746;28;20451;-66
2024/01/06 10:59:59;;;;;;;5.60;4.57;;;5.10;99.90;;;;;;4981154;28;20466;-66
2024/01/06 11:02:26;;;;;;;13.93;4.80;;;5.00;99.90;;;;;;4985946;28;20450;-66
2024/01/06 11:04:53;;;;;;;13.73;5.60;;;4.90;99.90;;;;;;4980740;28;20508;-67
2024/01/06 11:07:22;;;;;;;7.43;3.60;;;4.80;99.90;;;;;;4980341;28;20972;-66
2024/01/06 11:09:53;;;;;;;9.73;6.13;;;4.90;99.90;;;;;;4985692;28;20472;-67
2024/01/06 11:12:20;;;;;;;9.03;5.30;;;4.90;99.90;;;;;;4981670;28;20483;-67
2024/01/06 11:14:48;;;;;;;9.33;4.67;;;5.00;99.90;;;;;;4985871;28;20477;-67
2024/01/06 11:17:53;;;;;;;17.50;9.60;;;5.00;99.90;;;;;;4984688;28;20923;-67
2024/01/06 11:20:19;;;;;;;13.43;7.20;;;5.00;99.90;;;;;;4983756;28;20443;-67
2024/01/06 11:22:46;;;;;;;10.43;5.50;;;4.80;99.90;;;;;;4981735;28;20523;-67
2024/01/06 11:25:16;;;;;;;9.63;5.63;;;4.90;99.90;;;;;;4988859;28;20504;-67
2024/01/06 11:27:45;;;;;;;17.60;7.40;;;5.00;99.90;;;;;;4985223;28;20462;-67
2024/01/06 11:30:22;;;;;;;12.53;5.47;;;4.90;99.90;;;;;;4984719;28;20490;-67
2024/01/06 11:32:52;;;;;;;12.70;6.67;;;5.00;99.90;;;;;;4981597;28;20931;-67
2024/01/06 11:35:19;;;;;;;10.60;4.63;;;5.00;99.90;;;;;;4986282;28;20480;-67
2024/01/06 11:37:54;;;;;;;8.43;4.97;;;4.90;99.90;;;;;;4984227;28;20552;-67
2024/01/06 11:40:26;;;;;;;8.13;4.50;;;5.00;99.90;;;;;;4986755;28;20436;-67
2024/01/06 11:43:05;;;;;;;9.00;5.33;;;4.80;99.90;;;;;;4988054;28;20420;-67
2024/01/06 11:45:34;;;;;;;12.73;5.60;;;4.80;99.90;;;;;;4986968;28;20470;-67
2024/01/06 11:48:02;;;;;;;11.50;6.43;;;4.80;99.90;;;;;;4981937;28;20467;-67
2024/01/06 11:50:29;;;;;;;13.20;6.40;;;4.80;99.90;;;;;;4986589;28;20458;-67
2024/01/06 11:52:56;;;;;;;11.90;4.83;;;4.90;99.90;;;;;;4988353;28;20446;-67
2024/01/06 11:55:24;;;;;;;10.60;5.53;;;4.80;99.90;;;;;;4984224;28;20452;-67
2024/01/06 11:57:50;;;;;;;9.93;6.00;;;4.70;99.90;;;;;;4985140;28;20454;-67
2024/01/06 12:00:18;;;;;;;9.43;4.20;;;4.80;99.90;;;;;;4982204;28;20467;-66
2024/01/06 12:02:46;;;;;;;10.23;4.30;;;4.80;99.90;;;;;;4982848;28;20467;-67
2024/01/06 12:05:17;;;;;;;15.77;5.83;;;4.80;99.90;;;;;;4982235;28;20489;-67
2024/01/06 12:07:53;;;;;;;8.77;4.80;;;4.80;99.90;;;;;;4980069;28;20437;-67
2024/01/06 12:10:21;;;;;;;5.97;4.03;;;4.80;99.90;;;;;;4974085;28;20470;-67
2024/01/06 12:12:58;;;;;;;9.17;4.53;;;4.80;99.90;;;;;;4980913;28;20452;-67
2024/01/06 12:15:25;;;;;;;10.10;5.83;;;4.80;99.90;;;;;;4979881;28;21033;-67
2024/01/06 12:17:53;;;;;;;9.20;4.90;;;4.70;99.90;;;;;;5000339;23;20557;-68
2024/01/06 12:20:20;;;;;;;7.00;3.63;;;4.70;99.90;;;;;;4998697;28;20471;-67
2024/01/06 12:22:47;;;;;;;11.60;6.10;;;4.80;99.90;;;;;;5008483;28;20805;-67
2024/01/06 12:25:16;;;;;;;7.17;3.70;;;4.80;99.90;;;;;;5002946;28;20803;-67
2024/01/06 12:27:43;;;;;;;9.17;5.43;;;4.80;99.90;;;;;;5005579;28;20470;-66
2024/01/06 12:30:15;;;;;;;7.20;5.53;;;4.80;99.90;;;;;;5007332;28;20439;-68
2024/01/06 12:32:42;;;;;;;4.43;3.50;;;4.90;99.90;;;;;;4994895;28;20694;-67
2024/01/06 12:35:11;;;;;;;7.53;4.97;;;4.90;99.90;;;;;;5005983;28;20538;-68
2024/01/06 12:37:38;;;;;;;8.43;3.93;;;4.90;99.90;;;;;;4999152;28;21017;-67
2024/01/06 12:40:06;;;;;;;11.00;5.10;;;4.80;99.90;;;;;;4994496;28;20447;-66
2024/01/06 12:42:32;;;;;;;5.93;4.23;;;4.70;99.90;;;;;;5000933;28;20465;-67
2024/01/06 12:44:59;;;;;;;10.90;6.83;;;4.80;99.90;;;;;;5002994;28;20854;-67
2024/01/06 12:47:26;;;;;;;7.07;2.70;;;4.70;99.90;;;;;;4987145;28;20469;-67
2024/01/06 12:49:53;;;;;;;5.83;4.30;;;4.60;99.90;;;;;;5004391;28;20431;-67
2024/01/06 12:52:21;;;;;;;11.60;7.63;;;4.50;99.90;;;;;;5002064;28;20463;-67
2024/01/06 12:54:48;;;;;;;13.30;6.27;;;4.40;99.90;;;;;;4997430;28;20488;-67